Time;durP1;ratioP1;P1;durP2;ratioP2;P2;SDS_P1;SDS_P2;PMS_P1;PMS_P2;Temp;Humidity;BMP_temperature;BMP_pressure;BME280_temperature;BME280_humidity;BME280_pressure;Samples;Min_cycle;Max_cycle;Signal;HPM_P1;HPM_P2
2023/09/15 00:00:25;;;;;;;;;;;17.80;99.90;;;;;;5093333;28;20357;-86
2023/09/15 00:02:55;;;;;;;;;;;17.90;99.90;;;;;;5092955;28;19924;-85
2023/09/15 00:05:28;;;;;;;;;;;17.80;99.90;;;;;;5093243;28;19925;-87
2023/09/15 00:07:58;;;;;;;;;;;17.80;99.90;;;;;;5092852;28;19931;-85
2023/09/15 00:10:26;;;;;;;;;;;17.80;99.90;;;;;;5092324;28;19924;-85
2023/09/15 00:12:52;;;;;;;;;;;17.80;99.90;;;;;;5086781;28;19925;-86
2023/09/15 00:15:19;;;;;;;;;;;17.70;99.90;;;;;;5093536;28;19924;-85
2023/09/15 00:17:47;;;;;;;;;;;17.60;99.90;;;;;;5085919;28;19928;-85
2023/09/15 00:20:15;;;;;;;;;;;17.60;99.90;;;;;;5091531;28;19992;-86
2023/09/15 00:22:49;;;;;;;;;;;17.60;99.90;;;;;;5092790;28;20375;-85
2023/09/15 00:25:19;;;;;;;;;;;17.60;99.90;;;;;;5090784;28;19925;-85
2023/09/15 00:27:47;;;;;;;;;;;17.60;99.90;;;;;;5086995;28;19925;-85
2023/09/15 00:30:15;;;;;;;;;;;17.50;99.90;;;;;;5093465;28;19925;-86
2023/09/15 00:32:42;;;;;;;;;;;17.50;99.90;;;;;;5092794;28;19932;-85
2023/09/15 00:35:08;;;;;;;;;;;17.50;99.90;;;;;;5092654;28;20387;-85
2023/09/15 00:37:35;;;;;;;;;;;17.50;99.90;;;;;;5093488;28;19924;-86
2023/09/15 00:40:06;;;;;;;;;;;17.50;99.90;;;;;;5085210;28;19928;-85
2023/09/15 00:42:33;;;;;;;;;;;17.50;99.90;;;;;;5092947;28;19932;-86
2023/09/15 00:45:04;;;;;;;;;;;17.40;99.90;;;;;;5091764;28;20388;-86
2023/09/15 00:47:31;;;;;;;;;;;17.40;99.90;;;;;;5092651;28;19947;-85
2023/09/15 00:49:58;;;;;;;;;;;17.50;99.90;;;;;;5074442;28;20011;-85
2023/09/15 00:52:25;;;;;;;;;;;17.40;99.90;;;;;;5092267;28;19929;-85
2023/09/15 00:54:52;;;;;;;;;;;17.30;99.90;;;;;;5089618;28;19978;-87
2023/09/15 00:57:19;;;;;;;;;;;17.30;99.90;;;;;;5091075;28;19924;-85
2023/09/15 00:59:46;;;;;;;;;;;17.30;99.90;;;;;;5090695;28;19932;-85
2023/09/15 01:02:12;;;;;;;;;;;17.30;99.90;;;;;;5098073;28;19920;-86
2023/09/15 01:04:40;;;;;;;;;;;17.30;99.90;;;;;;5095804;28;19931;-85
2023/09/15 01:07:07;;;;;;;;;;;17.20;99.90;;;;;;5088970;28;19950;-85
2023/09/15 01:09:34;;;;;;;;;;;17.20;99.90;;;;;;5089978;28;19928;-85
2023/09/15 01:12:01;;;;;;;;;;;17.20;99.90;;;;;;5073539;28;19928;-85
2023/09/15 01:14:28;;;;;;;;;;;17.20;99.90;;;;;;5082393;28;19924;-85
2023/09/15 01:16:58;;;;;;;;;;;17.10;99.90;;;;;;5074543;28;19912;-86
2023/09/15 01:19:27;;;;;;;;;;;17.10;99.90;;;;;;5091365;28;20000;-86
2023/09/15 01:22:04;;;;;;;;;;;17.10;99.90;;;;;;5092256;28;19924;-86
2023/09/15 01:24:50;;;;;;;;;;;17.10;99.90;;;;;;5071846;28;20032;-86
2023/09/15 01:27:19;;;;;;;;;;;17.10;99.90;;;;;;5089344;28;19925;-85
2023/09/15 01:29:49;;;;;;;;;;;17.10;99.90;;;;;;5091742;28;19947;-86
2023/09/15 01:32:18;;;;;;;;;;;17.00;99.90;;;;;;5091960;28;19932;-86
2023/09/15 01:34:47;;;;;;;;;;;17.00;99.90;;;;;;5091734;28;19967;-87
2023/09/15 01:37:13;;;;;;;;;;;17.00;99.90;;;;;;5091650;28;19937;-85
2023/09/15 01:39:40;;;;;;;;;;;17.00;99.90;;;;;;5092003;28;20019;-86
2023/09/15 01:42:07;;;;;;;;;;;17.00;99.90;;;;;;5073617;28;20192;-85
2023/09/15 01:44:33;;;;;;;;;;;16.90;99.90;;;;;;5091637;28;19924;-86
2023/09/15 01:47:00;;;;;;;;;;;17.00;99.90;;;;;;5091788;28;19932;-86
2023/09/15 01:49:28;;;;;;;;;;;16.90;99.90;;;;;;5091660;28;19946;-85
2023/09/15 01:51:55;;;;;;;;;;;16.90;99.90;;;;;;5091695;28;19946;-86
2023/09/15 01:54:22;;;;;;;;;;;16.90;99.90;;;;;;5071271;28;19947;-86
2023/09/15 01:56:49;;;;;;;;;;;16.80;99.90;;;;;;5090896;28;19946;-86
2023/09/15 01:59:15;;;;;;;;;;;16.80;99.90;;;;;;5075849;28;19928;-85
2023/09/15 02:01:42;;;;;;;;;;;16.80;99.90;;;;;;5073631;28;19932;-86
2023/09/15 02:04:09;;;;;;;;;;;16.80;99.90;;;;;;5074140;28;19928;-84
2023/09/15 02:06:36;;;;;;;;;;;16.80;99.90;;;;;;5087995;28;19912;-87
2023/09/15 02:09:06;;;;;;;;;;;16.70;99.90;;;;;;5091632;28;19920;-85
2023/09/15 02:11:33;;;;;;;;;;;16.70;99.90;;;;;;5091377;28;20376;-85
2023/09/15 02:14:00;;;;;;;;;;;16.70;99.90;;;;;;5091748;28;19925;-84
2023/09/15 02:16:27;;;;;;;;;;;16.70;99.90;;;;;;5082481;28;19999;-85
2023/09/15 02:18:54;;;;;;;;;;;16.70;99.90;;;;;;5091430;28;19912;-85
2023/09/15 02:21:21;;;;;;;;;;;16.60;99.90;;;;;;5079674;28;19929;-85
2023/09/15 02:23:48;;;;;;;;;;;16.60;99.90;;;;;;5083211;28;19978;-85
2023/09/15 02:26:14;;;;;;;;;;;16.60;99.90;;;;;;5080459;28;19932;-85
2023/09/15 02:28:41;;;;;;;;;;;16.60;99.90;;;;;;5081010;28;19984;-85
2023/09/15 02:31:08;;;;;;;;;;;16.60;99.90;;;;;;5081033;28;19979;-84
2023/09/15 02:33:37;;;;;;;;;;;16.50;99.90;;;;;;5079562;28;19933;-85
2023/09/15 02:36:04;;;;;;;;;;;16.60;99.90;;;;;;5080299;28;19979;-84
2023/09/15 02:38:31;;;;;;;;;;;16.50;99.90;;;;;;5078178;28;19935;-84
2023/09/15 02:40:58;;;;;;;;;;;16.50;99.90;;;;;;5077870;28;19968;-84
2023/09/15 02:43:24;;;;;;;;;;;16.50;99.90;;;;;;5078966;28;19947;-84
2023/09/15 02:45:51;;;;;;;;;;;16.40;99.90;;;;;;5076850;28;20000;-84
2023/09/15 02:48:18;;;;;;;;;;;16.40;99.90;;;;;;5077959;28;19924;-84
2023/09/15 02:50:45;;;;;;;;;;;16.40;99.90;;;;;;5078412;28;19959;-85
2023/09/15 02:53:12;;;;;;;;;;;16.40;99.90;;;;;;5067343;28;19963;-85
2023/09/15 02:55:38;;;;;;;;;;;16.40;99.90;;;;;;5077007;28;20446;-84
2023/09/15 02:58:05;;;;;;;;;;;16.30;99.90;;;;;;5075245;28;19924;-85
2023/09/15 03:00:32;;;;;;;;;;;16.40;99.90;;;;;;5075646;28;19931;-84
2023/09/15 03:02:59;;;;;;;;;;;16.30;99.90;;;;;;5058684;28;19983;-84
2023/09/15 03:05:26;;;;;;;;;;;16.30;99.90;;;;;;5076830;28;20391;-84
2023/09/15 03:07:53;;;;;;;;;;;16.30;99.90;;;;;;5077155;28;19990;-84
2023/09/15 03:10:20;;;;;;;;;;;16.30;99.90;;;;;;5075816;28;19963;-85
2023/09/15 03:12:46;;;;;;;;;;;16.30;99.90;;;;;;5076731;28;19925;-84
2023/09/15 03:15:13;;;;;;;;;;;16.30;99.90;;;;;;5077473;28;19925;-85
2023/09/15 03:17:40;;;;;;;;;;;16.30;99.90;;;;;;5077582;28;19925;-84
2023/09/15 03:20:15;;;;;;;;;;;16.30;99.90;;;;;;5067125;28;19931;-85
2023/09/15 03:22:43;;;;;;;;;;;16.30;99.90;;;;;;5081891;28;20038;-84
2023/09/15 03:25:09;;;;;;;;;;;16.20;99.90;;;;;;5079847;28;20307;-84
2023/09/15 03:27:36;;;;;;;;;;;16.20;99.90;;;;;;5071691;28;19971;-84
2023/09/15 03:30:06;;;;;;;;;;;16.20;99.90;;;;;;5082111;28;20354;-85
2023/09/15 03:32:33;;;;;;;;;;;16.20;99.90;;;;;;5063979;28;19928;-84
2023/09/15 03:35:00;;;;;;;;;;;16.10;99.90;;;;;;5081347;28;19931;-85
2023/09/15 03:37:27;;;;;;;;;;;16.10;99.90;;;;;;5082017;28;19925;-84
2023/09/15 03:39:54;;;;;;;;;;;16.20;99.90;;;;;;5081251;28;19932;-83
2023/09/15 03:42:21;;;;;;;;;;;16.10;99.90;;;;;;5081224;28;19925;-85
2023/09/15 03:44:47;;;;;;;;;;;16.10;99.90;;;;;;5080963;28;20300;-85
2023/09/15 03:47:14;;;;;;;;;;;16.10;99.90;;;;;;5081279;28;19925;-84
2023/09/15 03:49:40;;;;;;;;;;;16.10;99.90;;;;;;5062833;28;19933;-84
2023/09/15 03:52:08;;;;;;;;;;;16.10;99.90;;;;;;5061143;28;19924;-84
2023/09/15 03:54:35;;;;;;;;;;;16.10;99.90;;;;;;5078125;28;19946;-84
2023/09/15 03:57:03;;;;;;;;;;;16.00;99.90;;;;;;5079130;28;20400;-84
2023/09/15 03:59:29;;;;;;;;;;;16.10;99.90;;;;;;5063003;28;19964;-84
2023/09/15 04:01:57;;;;;;;;;;;16.00;99.90;;;;;;5060483;28;19932;-85
2023/09/15 04:04:24;;;;;;;;;;;16.00;99.90;;;;;;5079805;28;19932;-85
2023/09/15 04:06:51;;;;;;;;;;;16.00;99.90;;;;;;5079104;28;19924;-85
2023/09/15 04:09:19;;;;;;;;;;;16.00;99.90;;;;;;5080429;28;19925;-84
2023/09/15 04:11:45;;;;;;;;;;;16.00;99.90;;;;;;5084009;28;19924;-84
2023/09/15 04:14:12;;;;;;;;;;;16.00;99.90;;;;;;5085208;28;19935;-85
2023/09/15 04:16:39;;;;;;;;;;;16.00;99.90;;;;;;5072940;28;19925;-85
2023/09/15 04:19:05;;;;;;;;;;;15.90;99.90;;;;;;5084975;28;19929;-84
2023/09/15 04:21:34;;;;;;;;;;;15.90;99.90;;;;;;5072483;28;19928;-85
2023/09/15 04:24:00;;;;;;;;;;;16.00;99.90;;;;;;5083754;28;19943;-84
2023/09/15 04:26:27;;;;;;;;;;;15.90;99.90;;;;;;5082383;28;20434;-84
2023/09/15 04:28:53;;;;;;;;;;;15.90;99.90;;;;;;5083465;28;19925;-85
2023/09/15 04:31:20;;;;;;;;;;;15.90;99.90;;;;;;5084553;28;19928;-84
2023/09/15 04:33:48;;;;;;;;;;;15.90;99.90;;;;;;5085517;28;20360;-85
2023/09/15 04:36:16;;;;;;;;;;;15.90;99.90;;;;;;5081783;28;19924;-84
2023/09/15 04:38:42;;;;;;;;;;;15.90;99.90;;;;;;5073785;28;19928;-85
2023/09/15 04:41:09;;;;;;;;;;;15.80;99.90;;;;;;5072552;28;19932;-84
2023/09/15 04:43:36;;;;;;;;;;;15.80;99.90;;;;;;5079351;28;19972;-85
2023/09/15 04:46:02;;;;;;;;;;;15.80;99.90;;;;;;5068387;28;20380;-84
2023/09/15 04:48:29;;;;;;;;;;;15.80;99.90;;;;;;5075354;28;20303;-84
2023/09/15 04:50:56;;;;;;;;;;;15.80;99.90;;;;;;5057832;28;19931;-84
2023/09/15 04:53:23;;;;;;;;;;;15.80;99.90;;;;;;5075828;28;20449;-84
2023/09/15 04:55:50;;;;;;;;;;;15.70;99.90;;;;;;5075848;28;20007;-84
2023/09/15 04:58:17;;;;;;;;;;;15.80;99.90;;;;;;5075509;28;19986;-84
2023/09/15 05:00:43;;;;;;;;;;;15.70;99.90;;;;;;5076578;28;19931;-84
2023/09/15 05:03:10;;;;;;;;;;;15.70;99.90;;;;;;5075401;28;20005;-84
2023/09/15 05:05:37;;;;;;;;;;;15.70;99.90;;;;;;5075207;28;19931;-84
2023/09/15 05:08:04;;;;;;;;;;;15.70;99.90;;;;;;5065194;28;19924;-85
2023/09/15 05:10:30;;;;;;;;;;;15.70;99.90;;;;;;5075833;28;20565;-84
2023/09/15 05:12:58;;;;;;;;;;;15.70;99.90;;;;;;5076373;28;19978;-84
2023/09/15 05:15:25;;;;;;;;;;;15.60;99.90;;;;;;5067338;28;19925;-84
2023/09/15 05:17:52;;;;;;;;;;;15.70;99.90;;;;;;5075837;28;20037;-84
2023/09/15 05:20:19;;;;;;;;;;;15.60;99.90;;;;;;5074261;28;19924;-84
2023/09/15 05:22:45;;;;;;;;;;;15.70;99.90;;;;;;5079543;28;19970;-84
2023/09/15 05:25:12;;;;;;;;;;;15.70;99.90;;;;;;5076884;28;19929;-84
2023/09/15 05:27:39;;;;;;;;;;;15.70;99.90;;;;;;5060865;28;19977;-84
2023/09/15 05:30:05;;;;;;;;;;;15.70;99.90;;;;;;5079791;28;19925;-84
2023/09/15 05:32:32;;;;;;;;;;;15.70;99.90;;;;;;5080897;28;19928;-84
2023/09/15 05:34:59;;;;;;;;;;;15.70;99.90;;;;;;5080828;28;19932;-84
2023/09/15 05:37:25;;;;;;;;;;;15.70;99.90;;;;;;5083635;28;19924;-84
2023/09/15 05:39:52;;;;;;;;;;;15.70;99.90;;;;;;5066344;28;19935;-84
2023/09/15 05:42:19;;;;;;;;;;;15.70;99.90;;;;;;5080092;28;19925;-84
2023/09/15 05:44:45;;;;;;;;;;;15.70;99.90;;;;;;5078778;28;19932;-85
2023/09/15 05:47:12;;;;;;;;;;;15.70;99.90;;;;;;5061044;28;19974;-85
2023/09/15 05:49:39;;;;;;;;;;;15.70;99.90;;;;;;5078869;28;19925;-84
2023/09/15 05:52:06;;;;;;;;;;;15.70;99.90;;;;;;5076631;28;19963;-84
2023/09/15 05:54:33;;;;;;;;;;;15.80;99.90;;;;;;5079546;28;19928;-85
2023/09/15 05:56:59;;;;;;;;;;;15.80;99.90;;;;;;5078753;28;19925;-84
2023/09/15 05:59:28;;;;;;;;;;;15.80;99.90;;;;;;5075729;28;19971;-83
2023/09/15 06:01:56;;;;;;;;;;;15.90;99.90;;;;;;5078148;28;20380;-84
2023/09/15 06:04:23;;;;;;;;;;;15.90;99.90;;;;;;5077961;28;19971;-85
2023/09/15 06:06:49;;;;;;;;;;;15.80;99.90;;;;;;5078194;28;19931;-84
2023/09/15 06:09:16;;;;;;;;;;;15.90;99.90;;;;;;5080601;28;20319;-84
2023/09/15 06:11:43;;;;;;;;;;;16.00;99.90;;;;;;5079943;28;19924;-85
2023/09/15 06:14:10;;;;;;;;;;;16.00;99.90;;;;;;5079568;28;19925;-84
2023/09/15 06:16:39;;;;;;;;;;;16.10;99.90;;;;;;5063218;28;19924;-84
2023/09/15 06:19:06;;;;;;;;;;;16.10;99.90;;;;;;5078510;28;19924;-84
2023/09/15 06:21:33;;;;;;;;;;;16.10;99.90;;;;;;5084532;28;19924;-84
2023/09/15 06:24:00;;;;;;;;;;;16.10;99.90;;;;;;5085703;28;19982;-84
2023/09/15 06:26:27;;;;;;;;;;;16.10;99.90;;;;;;5068840;28;19925;-85
2023/09/15 06:28:53;;;;;;;;;;;16.20;99.90;;;;;;5086570;28;19924;-85
2023/09/15 06:31:23;;;;;;;;;;;16.20;99.90;;;;;;5068422;28;19924;-84
2023/09/15 06:33:50;;;;;;;;;;;16.30;99.90;;;;;;5080681;28;19924;-85
2023/09/15 06:36:17;;;;;;;;;;;16.30;99.90;;;;;;5083845;28;19924;-86
2023/09/15 06:38:43;;;;;;;;;;;16.30;99.90;;;;;;5088165;28;19924;-85
2023/09/15 06:41:10;;;;;;;;;;;16.40;99.90;;;;;;5069880;28;19967;-86
2023/09/15 06:43:37;;;;;;;;;;;16.40;99.90;;;;;;5073500;28;19925;-85
2023/09/15 06:46:04;;;;;;;;;;;16.50;99.90;;;;;;5088146;28;19947;-85
2023/09/15 06:48:31;;;;;;;;;;;16.50;99.90;;;;;;5085718;28;20399;-86
2023/09/15 06:50:57;;;;;;;;;;;16.50;99.90;;;;;;5076915;28;19928;-85
2023/09/15 06:53:24;;;;;;;;;;;16.50;99.90;;;;;;5082206;28;20373;-85
2023/09/15 06:55:53;;;;;;;;;;;16.60;99.90;;;;;;5084614;28;19984;-86
2023/09/15 06:58:19;;;;;;;;;;;16.60;99.90;;;;;;5089004;28;19925;-86
2023/09/15 07:00:46;;;;;;;;;;;16.70;99.90;;;;;;5088226;28;19932;-85
2023/09/15 07:03:13;;;;;;;;;;;16.70;99.90;;;;;;5087537;28;19939;-87
2023/09/15 07:05:39;;;;;;;;;;;16.80;99.90;;;;;;5080348;28;19932;-85
2023/09/15 07:08:06;;;;;;;;;;;16.70;99.90;;;;;;5070340;28;20374;-86
2023/09/15 07:10:33;;;;;;;;;;;16.70;99.90;;;;;;5084149;28;19932;-87
2023/09/15 07:12:59;;;;;;;;;;;16.80;99.90;;;;;;5088221;28;19936;-85
2023/09/15 07:15:28;;;;;;;;;;;16.80;99.90;;;;;;5087463;28;19947;-85
2023/09/15 07:17:55;;;;;;;;;;;16.80;99.90;;;;;;5088304;28;19925;-86
2023/09/15 07:20:22;;;;;;;;;;;16.80;99.90;;;;;;5089090;28;19952;-86
2023/09/15 07:22:48;;;;;;;;;;;16.90;99.90;;;;;;5089526;28;20014;-86
2023/09/15 07:25:15;;;;;;;;;;;16.80;99.90;;;;;;5086697;28;19929;-86
2023/09/15 07:27:42;;;;;;;;;;;16.90;99.90;;;;;;5081422;28;19939;-86
2023/09/15 07:30:12;;;;;;;;;;;16.90;99.90;;;;;;5086286;28;20031;-86
2023/09/15 07:32:39;;;;;;;;;;;16.90;99.90;;;;;;5064453;28;19956;-85
2023/09/15 07:35:06;;;;;;;;;;;17.00;99.90;;;;;;5086528;28;19998;-85
2023/09/15 07:37:33;;;;;;;;;;;17.00;99.90;;;;;;5084535;28;20307;-86
2023/09/15 07:39:59;;;;;;;;;;;17.00;99.90;;;;;;5086198;28;19925;-85
2023/09/15 07:42:26;;;;;;;;;;;17.10;99.90;;;;;;5068670;28;19924;-85
2023/09/15 07:44:53;;;;;;;;;;;17.10;99.90;;;;;;5083536;28;19932;-87
2023/09/15 07:47:20;;;;;;;;;;;17.10;99.90;;;;;;5086516;28;19935;-86
2023/09/15 07:49:46;;;;;;;;;;;17.20;99.90;;;;;;5086761;28;19931;-86
2023/09/15 07:52:13;;;;;;;;;;;17.20;99.90;;;;;;5087057;28;19952;-85
2023/09/15 07:54:43;;;;;;;;;;;17.30;99.90;;;;;;5085871;28;20031;-85
2023/09/15 07:57:09;;;;;;;;;;;17.30;99.90;;;;;;5083083;28;19931;-85
2023/09/15 07:59:36;;;;;;;;;;;17.30;99.90;;;;;;5087272;28;19987;-85
2023/09/15 08:02:06;;;;;;;;;;;17.40;99.90;;;;;;5085813;28;19940;-87
2023/09/15 08:04:32;;;;;;;;;;;17.40;99.90;;;;;;5073804;28;19929;-85
2023/09/15 08:06:59;;;;;;;;;;;17.40;99.90;;;;;;5083672;28;19924;-85
2023/09/15 08:09:26;;;;;;;;;;;17.40;99.90;;;;;;5084316;28;19924;-84
2023/09/15 08:11:54;;;;;;;;;;;17.50;99.90;;;;;;5074038;28;19933;-85
2023/09/15 08:14:20;;;;;;;;;;;17.40;99.90;;;;;;5061340;28;19925;-86
2023/09/15 08:16:47;;;;;;;;;;;17.50;99.90;;;;;;5081124;28;19960;-86
2023/09/15 08:19:14;;;;;;;;;;;17.50;99.90;;;;;;5061102;28;19953;-86
2023/09/15 08:21:40;;;;;;;;;;;17.50;99.90;;;;;;5083741;28;19970;-86
2023/09/15 08:24:07;;;;;;;;;;;17.60;99.90;;;;;;5084014;28;19928;-86
2023/09/15 08:26:34;;;;;;;;;;;17.60;99.90;;;;;;5083994;28;20276;-86
2023/09/15 08:29:11;;;;;;;;;;;17.60;99.90;;;;;;5082910;28;20371;-86
2023/09/15 08:31:39;;;;;;;;;;;17.70;99.90;;;;;;5070942;28;19928;-85
2023/09/15 08:34:06;;;;;;;;;;;17.80;99.90;;;;;;5065726;28;19925;-83
2023/09/15 08:36:32;;;;;;;;;;;17.70;99.90;;;;;;5083827;28;19925;-84
2023/09/15 08:38:59;;;;;;;;;;;17.80;99.90;;;;;;5082112;28;19924;-85
2023/09/15 08:41:39;;;;;;;;;;;17.80;99.90;;;;;;5081967;28;19981;-85
2023/09/15 08:44:09;;;;;;;;;;;17.90;99.90;;;;;;5082760;28;20295;-85
2023/09/15 08:46:37;;;;;;;;;;;17.90;99.90;;;;;;5083858;28;19925;-85
2023/09/15 08:49:05;;;;;;;;;;;18.00;99.90;;;;;;5086377;28;20003;-85
2023/09/15 08:51:32;;;;;;;;;;;18.00;99.90;;;;;;5084181;28;19931;-85
2023/09/15 08:53:59;;;;;;;;;;;18.10;99.90;;;;;;5085939;28;19977;-85
2023/09/15 08:56:26;;;;;;;;;;;18.10;99.90;;;;;;5067638;28;20391;-85
2023/09/15 08:58:53;;;;;;;;;;;18.20;99.90;;;;;;5083993;28;19929;-85
2023/09/15 09:01:20;;;;;;;;;;;18.30;99.90;;;;;;5085442;28;20387;-84
2023/09/15 09:03:47;;;;;;;;;;;18.30;99.90;;;;;;5083307;28;19924;-85
2023/09/15 09:06:15;;;;;;;;;;;18.40;99.90;;;;;;5082485;28;19924;-85
2023/09/15 09:08:44;;;;;;;;;;;18.40;99.90;;;;;;5070385;28;19935;-85
2023/09/15 09:11:11;;;;;;;;;;;18.50;99.90;;;;;;5084710;28;19924;-85
2023/09/15 09:13:38;;;;;;;;;;;18.50;99.90;;;;;;5079114;28;19928;-85
2023/09/15 09:16:12;;;;;;;;;;;18.60;99.90;;;;;;5084968;28;19929;-85
2023/09/15 09:18:40;;;;;;;;;;;18.60;99.90;;;;;;5084225;28;19932;-84
2023/09/15 09:21:07;;;;;;;;;;;18.70;99.90;;;;;;5084187;28;19930;-85
2023/09/15 09:23:34;;;;;;;;;;;18.70;99.90;;;;;;5079834;28;19928;-85
2023/09/15 09:26:09;;;;;;;;;;;18.70;99.90;;;;;;5086807;28;19924;-83
2023/09/15 09:28:36;;;;;;;;;;;18.90;99.90;;;;;;5084180;28;19935;-85
2023/09/15 09:31:03;;;;;;;;;;;18.90;99.90;;;;;;5085491;28;19956;-85
2023/09/15 09:33:30;;;;;;;;;;;18.90;99.90;;;;;;5084954;28;19929;-85
2023/09/15 09:35:57;;;;;;;;;;;19.00;99.90;;;;;;5086256;28;19925;-87
2023/09/15 09:38:25;;;;;;;;;;;19.00;99.90;;;;;;5084667;28;19932;-87
2023/09/15 09:40:55;;;;;;;;;;;19.10;99.90;;;;;;5084373;28;19983;-85
2023/09/15 09:43:22;;;;;;;;;;;19.10;99.90;;;;;;5086207;28;19988;-85
2023/09/15 09:45:49;;;;;;;;;;;19.20;99.90;;;;;;5081293;28;19925;-85
2023/09/15 09:48:16;;;;;;;;;;;19.20;99.90;;;;;;5083877;28;20464;-84
2023/09/15 09:50:43;;;;;;;;;;;19.30;99.90;;;;;;5083718;28;19932;-85
2023/09/15 09:53:10;;;;;;;;;;;19.30;99.90;;;;;;5084702;28;19924;-84
2023/09/15 09:55:36;;;;;;;;;;;19.40;99.90;;;;;;5088399;28;19925;-85
2023/09/15 09:58:05;;;;;;;;;;;19.40;99.90;;;;;;5088408;28;19951;-84
2023/09/15 10:00:36;;;;;;;;;;;19.50;99.90;;;;;;5087996;28;20361;-84
2023/09/15 10:03:04;;;;;;;;;;;19.50;99.90;;;;;;5086097;28;19925;-84
2023/09/15 10:05:33;;;;;;;;;;;19.50;99.90;;;;;;5086226;28;19932;-84
2023/09/15 10:08:00;;;;;;;;;;;19.60;99.90;;;;;;5087019;28;19925;-85
2023/09/15 10:10:26;;;;;;;;;;;19.60;99.90;;;;;;5087171;28;19928;-84
2023/09/15 10:12:53;;;;;;;;;;;19.60;99.90;;;;;;5079164;28;19928;-84
2023/09/15 10:15:22;;;;;;;;;;;19.60;99.90;;;;;;5087435;28;19967;-86
2023/09/15 10:17:49;;;;;;;;;;;19.70;99.90;;;;;;5070778;28;19934;-85
2023/09/15 10:20:16;;;;;;;;;;;19.80;99.90;;;;;;5086466;28;19924;-84
2023/09/15 10:22:44;;;;;;;;;;;19.90;99.90;;;;;;5086783;28;20525;-84
2023/09/15 10:25:16;;;;;;;;;;;19.80;99.90;;;;;;5086475;28;19932;-84
2023/09/15 10:27:44;;;;;;;;;;;19.90;99.90;;;;;;5086299;28;19928;-85
2023/09/15 10:30:11;;;;;;;;;;;19.90;99.90;;;;;;5078944;28;19998;-85
2023/09/15 10:32:39;;;;;;;;;;;20.00;99.90;;;;;;5080955;28;19931;-84
2023/09/15 10:35:07;;;;;;;;;;;20.10;99.90;;;;;;5083015;28;19925;-84
2023/09/15 10:37:38;;;;;;;;;;;20.10;99.90;;;;;;5084973;28;19928;-85
2023/09/15 10:40:05;;;;;;;;;;;20.10;99.90;;;;;;5073586;28;20280;-85
2023/09/15 10:42:33;;;;;;;;;;;20.20;99.90;;;;;;5086805;28;19947;-85
2023/09/15 10:45:12;;;;;;;;;;;20.30;99.90;;;;;;5086946;28;19924;-84
2023/09/15 10:47:40;;;;;;;;;;;20.30;99.90;;;;;;5088503;28;19924;-84
2023/09/15 10:50:07;;;;;;;;;;;20.40;99.90;;;;;;5067563;28;19925;-86
2023/09/15 10:52:35;;;;;;;;;;;20.50;99.90;;;;;;5089371;28;19925;-84
2023/09/15 10:55:02;;;;;;;;;;;20.50;99.90;;;;;;5072443;28;19925;-84
2023/09/15 10:57:32;;;;;;;;;;;20.60;99.90;;;;;;5085755;28;19932;-84
2023/09/15 10:59:59;;;;;;;;;;;20.60;99.90;;;;;;5086159;28;20310;-84
2023/09/15 11:02:26;;;;;;;;;;;20.60;99.90;;;;;;5086391;28;19925;-84
2023/09/15 11:04:53;;;;;;;;;;;20.70;99.90;;;;;;5071067;28;19925;-84
2023/09/15 11:07:20;;;;;;;;;;;20.70;99.90;;;;;;5084114;28;19925;-85
2023/09/15 11:09:47;;;;;;;;;;;20.70;99.90;;;;;;5073390;28;19970;-84
2023/09/15 11:12:13;;;;;;;;;;;20.80;99.90;;;;;;5082144;28;20017;-84
2023/09/15 11:14:40;;;;;;;;;;;20.80;99.90;;;;;;5063403;28;19928;-84
2023/09/15 11:17:07;;;;;;;;;;;20.80;99.90;;;;;;5084374;28;20455;-85
2023/09/15 11:19:36;;;;;;;;;;;20.90;99.90;;;;;;5086531;28;19924;-86
2023/09/15 11:22:03;;;;;;;;;;;20.90;99.90;;;;;;5079778;28;19924;-85
2023/09/15 11:24:30;;;;;;;;;;;21.00;99.90;;;;;;5085536;28;20538;-85
2023/09/15 11:27:00;;;;;;;;;;;21.00;99.90;;;;;;5084474;28;19968;-85
2023/09/15 11:29:29;;;;;;;;;;;21.00;99.90;;;;;;5084774;28;19925;-86
2023/09/15 11:31:58;;;;;;;;;;;21.10;99.90;;;;;;5081360;28;20323;-85
2023/09/15 11:34:26;;;;;;;;;;;21.10;99.90;;;;;;5083780;28;19950;-85
2023/09/15 11:36:57;;;;;;;;;;;21.10;99.90;;;;;;5082967;28;19956;-85
2023/09/15 11:39:24;;;;;;;;;;;21.20;99.90;;;;;;5082987;28;19951;-85
2023/09/15 11:41:54;;;;;;;;;;;21.20;99.90;;;;;;5072985;28;19924;-85
2023/09/15 11:44:26;;;;;;;;;;;21.20;99.90;;;;;;5079986;28;20588;-85
2023/09/15 11:46:55;;;;;;;;;;;21.30;99.90;;;;;;5088245;28;19925;-84
2023/09/15 11:49:23;;;;;;;;;;;21.40;99.90;;;;;;5087390;28;20011;-85
2023/09/15 11:51:50;;;;;;;;;;;21.40;99.90;;;;;;5080531;28;19951;-85
2023/09/15 11:54:17;;;;;;;;;;;21.50;99.90;;;;;;5071277;28;19924;-85
2023/09/15 11:56:44;;;;;;;;;;;21.50;99.90;;;;;;5069155;28;19967;-86
2023/09/15 11:59:12;;;;;;;;;;;21.50;99.90;;;;;;5080434;28;19967;-85
2023/09/15 12:01:40;;;;;;;;;;;21.60;99.90;;;;;;5089674;28;19956;-88
2023/09/15 12:04:07;;;;;;;;;;;21.60;99.90;;;;;;5069050;28;19924;-86
2023/09/15 12:06:40;;;;;;;;;;;21.70;99.90;;;;;;5076225;28;19932;-85
2023/09/15 12:09:07;;;;;;;;;;;21.70;99.90;;;;;;5088375;28;19924;-86
2023/09/15 12:11:39;;;;;;;;;;;21.70;99.90;;;;;;5069900;28;19931;-85
2023/09/15 12:14:07;;;;;;;;;;;21.80;99.90;;;;;;5088671;28;19935;-87
2023/09/15 12:16:37;;;;;;;;;;;21.80;99.90;;;;;;5088426;28;19924;-86
2023/09/15 12:19:04;;;;;;;;;;;21.90;99.90;;;;;;5088231;28;19932;-85
2023/09/15 12:21:31;;;;;;;;;;;21.90;99.90;;;;;;5108779;22;20355;-78
2023/09/15 12:24:10;;;;;;;;;;;22.00;99.90;;;;;;5061619;28;19925;-78
2023/09/15 12:26:40;;;;;;;;;;;22.10;99.90;;;;;;5045701;28;19924;-81
2023/09/15 12:29:06;;;;;;;;;;;22.10;99.90;;;;;;5050503;28;19954;-79
2023/09/15 12:31:41;;;;;;;;;;;22.20;99.90;;;;;;5044544;28;20426;-79
2023/09/15 12:34:08;;;;;;;;;;;22.20;99.90;;;;;;5029375;28;20407;-78
2023/09/15 12:36:35;;;;;;;;;;;22.20;99.90;;;;;;5025784;28;19932;-79
2023/09/15 12:39:01;;;;;;;;;;;22.30;99.90;;;;;;5041696;28;19971;-78
2023/09/15 12:41:33;;;;;;;;;;;22.30;99.90;;;;;;5048255;28;20273;-79
2023/09/15 12:44:00;;;;;;;;;;;22.40;99.90;;;;;;5046040;28;19979;-79
2023/09/15 12:46:27;;;;;;;;;;;22.40;99.90;;;;;;5039103;28;19928;-78
2023/09/15 12:48:53;;;;;;;;;;;22.50;99.90;;;;;;5045436;28;19929;-79
2023/09/15 12:51:20;;;;;;;;;;;22.40;99.90;;;;;;5045431;28;19925;-78
2023/09/15 12:53:47;;;;;;;;;;;22.50;99.90;;;;;;5048674;28;19929;-77
2023/09/15 12:56:14;;;;;;;;;;;22.50;99.90;;;;;;5049482;28;19951;-82
2023/09/15 12:58:40;;;;;;;;;;;22.50;99.90;;;;;;5047397;28;19932;-79
2023/09/15 13:01:07;;;;;;;;;;;22.50;99.90;;;;;;5043901;28;20383;-79
2023/09/15 13:03:34;;;;;;;;;;;22.50;99.90;;;;;;5045773;28;19929;-78
2023/09/15 13:06:02;;;;;;;;;;;22.50;99.90;;;;;;5047544;28;20303;-78
2023/09/15 13:08:29;;;;;;;;;;;22.50;99.90;;;;;;5048659;28;20468;-78
2023/09/15 13:10:55;;;;;;;;;;;22.60;99.90;;;;;;5044672;28;20491;-78
2023/09/15 13:13:22;;;;;;;;;;;22.50;99.90;;;;;;5046653;28;19948;-79
2023/09/15 13:15:48;;;;;;;;;;;22.60;99.90;;;;;;5041121;28;19932;-79
2023/09/15 13:18:16;;;;;;;;;;;22.60;99.90;;;;;;5044926;28;20376;-79
2023/09/15 13:20:43;;;;;;;;;;;22.70;99.90;;;;;;5045875;28;19937;-78
2023/09/15 13:23:09;;;;;;;;;;;22.70;99.90;;;;;;5047767;28;19932;-80
2023/09/15 13:25:36;;;;;;;;;;;22.70;99.90;;;;;;5046859;28;19932;-79
2023/09/15 13:28:04;;;;;;;;;;;22.80;99.90;;;;;;5046363;28;19932;-80
2023/09/15 13:30:32;;;;;;;;;;;22.90;99.90;;;;;;5040487;28;19925;-80
2023/09/15 13:32:59;;;;;;;;;;;22.90;99.90;;;;;;5046315;28;19925;-79
2023/09/15 13:35:26;;;;;;;;;;;22.90;99.90;;;;;;5048420;28;20008;-80
2023/09/15 13:37:53;;;;;;;;;;;23.00;99.90;;;;;;5049467;28;19925;-80
2023/09/15 13:40:19;;;;;;;;;;;23.00;99.90;;;;;;5044597;28;20458;-79
2023/09/15 13:42:46;;;;;;;;;;;23.00;99.90;;;;;;5045081;28;19925;-80
2023/09/15 13:45:13;;;;;;;;;;;23.10;99.90;;;;;;5043659;28;20003;-80
2023/09/15 13:47:40;;;;;;;;;;;23.10;99.90;;;;;;5041214;28;20007;-79
2023/09/15 13:50:06;;;;;;;;;;;23.10;99.90;;;;;;5048034;28;20384;-79
2023/09/15 13:52:33;;;;;;;;;;;23.10;99.90;;;;;;5031182;28;19925;-78
2023/09/15 13:55:00;;;;;;;;;;;23.10;99.90;;;;;;5041209;28;19932;-79
2023/09/15 13:57:26;;;;;;;;;;;23.10;99.90;;;;;;5047220;28;19932;-79
2023/09/15 13:59:55;;;;;;;;;;;23.10;99.90;;;;;;5040983;28;19948;-80
2023/09/15 14:02:25;;;;;;;;;;;23.10;99.90;;;;;;5040070;28;19928;-78
2023/09/15 14:04:52;;;;;;;;;;;23.00;99.90;;;;;;5048284;28;19925;-80
2023/09/15 14:07:19;;;;;;;;;;;23.00;99.90;;;;;;5033872;28;20311;-79
2023/09/15 14:09:45;;;;;;;;;;;23.00;99.90;;;;;;5041901;28;19925;-79
2023/09/15 14:12:12;;;;;;;;;;;23.00;99.90;;;;;;5044266;28;19925;-81
2023/09/15 14:14:39;;;;;;;;;;;23.00;99.90;;;;;;5050389;28;19931;-80
2023/09/15 14:17:07;;;;;;;;;;;23.00;99.90;;;;;;5044519;28;19925;-80